Time;durP1;ratioP1;P1;durP2;ratioP2;P2;SDS_P1;SDS_P2;PMS_P1;PMS_P2;Temp;Humidity;BMP_temperature;BMP_pressure;BME280_temperature;BME280_humidity;BME280_pressure;Samples;Min_cycle;Max_cycle;Signal;HPM_P1;HPM_P2
2022/08/18 00:02:16;;;;;;;26.00;19.42;;;18.90;99.90;;;;;;5092997;28;20032;-74
2022/08/18 00:04:42;;;;;;;20.85;18.65;;;18.80;99.90;;;;;;5093660;28;20024;-74
2022/08/18 00:07:11;;;;;;;21.70;19.58;;;18.80;99.90;;;;;;5091978;28;20484;-74
2022/08/18 00:09:38;;;;;;;21.67;18.42;;;18.70;99.90;;;;;;5093336;28;20434;-74
2022/08/18 00:12:09;;;;;;;21.45;19.20;;;18.70;99.90;;;;;;5093166;28;20020;-74
2022/08/18 00:14:34;;;;;;;22.13;18.02;;;18.70;99.90;;;;;;5093534;28;20107;-74
2022/08/18 00:17:00;;;;;;;23.10;20.52;;;18.60;99.90;;;;;;5093174;28;20481;-74
2022/08/18 00:19:26;;;;;;;26.92;21.08;;;18.60;99.90;;;;;;5093171;28;20027;-74
2022/08/18 00:21:51;;;;;;;26.13;21.73;;;18.60;99.90;;;;;;5092002;28;20485;-74
2022/08/18 00:24:17;;;;;;;25.63;21.10;;;18.60;99.90;;;;;;5093236;28;20027;-74
2022/08/18 00:26:43;;;;;;;23.73;21.15;;;18.60;99.90;;;;;;5093122;28;20028;-74
2022/08/18 00:29:09;;;;;;;22.25;19.85;;;18.50;99.90;;;;;;5093022;28;20016;-74
2022/08/18 00:31:35;;;;;;;23.10;20.58;;;18.50;99.90;;;;;;5091983;28;20350;-75
2022/08/18 00:34:00;;;;;;;22.60;20.20;;;18.50;99.90;;;;;;5093099;28;20484;-74
2022/08/18 00:36:26;;;;;;;23.98;21.35;;;18.40;99.90;;;;;;5091739;28;20042;-74
2022/08/18 00:38:52;;;;;;;22.92;20.48;;;18.50;99.90;;;;;;5092963;28;20028;-74
2022/08/18 00:41:19;;;;;;;24.60;21.95;;;18.50;99.90;;;;;;5092928;28;20063;-75
2022/08/18 00:43:47;;;;;;;23.52;20.77;;;18.40;99.90;;;;;;5091536;28;20097;-75
2022/08/18 00:46:23;;;;;;;29.73;22.40;;;18.40;99.90;;;;;;5091616;28;20030;-75
2022/08/18 00:48:49;;;;;;;26.63;22.58;;;18.40;99.90;;;;;;5092730;28;20089;-75
2022/08/18 00:51:28;;;;;;;29.08;22.77;;;18.40;99.90;;;;;;5092892;28;20024;-75
2022/08/18 00:54:30;;;;;;;24.15;21.13;;;18.40;99.90;;;;;;5091513;28;20024;-74
2022/08/18 00:57:03;;;;;;;25.00;22.33;;;18.40;99.90;;;;;;5092639;28;20043;-74
2022/08/18 00:59:56;;;;;;;27.73;21.80;;;18.30;99.90;;;;;;5091433;28;20028;-74
2022/08/18 01:02:25;;;;;;;;;;;18.30;99.90;;;;;;5091937;28;20375;-74
2022/08/18 01:05:04;;;;;;;23.58;20.83;;;18.30;99.90;;;;;;5091611;28;19949;-74
2022/08/18 01:07:44;;;;;;;25.60;21.88;;;18.20;99.90;;;;;;5092540;28;20024;-74
2022/08/18 01:10:15;;;;;;;26.65;20.33;;;18.30;99.90;;;;;;5091485;28;20505;-74
2022/08/18 01:12:45;;;;;;;23.38;19.35;;;18.20;99.90;;;;;;5092649;28;20035;-74
2022/08/18 01:15:14;;;;;;;20.55;18.35;;;18.20;99.90;;;;;;5092675;28;20051;-75
2022/08/18 01:23:18;;;;;;;24.80;22.02;;;18.30;99.90;;;;;;5092771;28;20047;-74
2022/08/18 01:25:59;;;;;;;21.95;19.35;;;18.30;99.90;;;;;;5092451;28;20024;-74
2022/08/18 01:28:42;;;;;;;17.87;15.70;;;18.20;99.90;;;;;;5091384;28;20103;-74
2022/08/18 01:31:09;;;;;;;18.13;16.23;;;18.10;99.90;;;;;;5092533;28;20266;-74
2022/08/18 01:33:43;;;;;;;17.38;15.57;;;18.10;99.90;;;;;;5091016;28;20027;-74
2022/08/18 01:36:13;;;;;;;15.40;13.98;;;18.00;99.90;;;;;;5091335;28;20030;-74
2022/08/18 01:38:39;;;;;;;18.33;16.40;;;18.00;99.90;;;;;;5092441;28;20358;-74
2022/08/18 01:41:06;;;;;;;19.23;16.67;;;17.90;99.90;;;;;;5091275;28;20031;-74
2022/08/18 01:43:33;;;;;;;20.05;17.05;;;18.00;99.90;;;;;;5095232;28;20028;-74
2022/08/18 01:46:00;;;;;;;18.05;15.70;;;17.90;99.90;;;;;;5094753;28;20063;-74
2022/08/18 01:48:27;;;;;;;17.63;15.23;;;17.80;99.90;;;;;;5094401;28;20097;-74
2022/08/18 01:50:55;;;;;;;15.65;14.05;;;17.80;99.90;;;;;;5096022;28;20020;-74
2022/08/18 01:53:21;;;;;;;21.70;17.52;;;17.70;99.90;;;;;;5095782;28;20020;-74
2022/08/18 01:55:47;;;;;;;22.02;19.27;;;17.70;99.90;;;;;;5095789;28;20126;-74
2022/08/18 01:58:13;;;;;;;22.38;18.80;;;17.70;99.90;;;;;;5095376;28;20532;-74
2022/08/18 02:00:40;;;;;;;20.92;18.67;;;17.70;99.90;;;;;;5095803;28;20500;-74
2022/08/18 02:03:10;;;;;;;23.45;21.00;;;17.70;99.90;;;;;;5094239;28;20036;-74
2022/08/18 02:05:45;;;;;;;27.48;22.00;;;17.70;99.90;;;;;;5095539;28;20024;-74
2022/08/18 02:08:14;;;;;;;23.02;20.63;;;17.70;99.90;;;;;;5095596;28;20024;-74
2022/08/18 02:10:40;;;;;;;22.67;18.95;;;17.70;99.90;;;;;;5095668;28;20016;-74
2022/08/18 02:13:07;;;;;;;20.73;18.52;;;17.70;99.90;;;;;;5095403;28;20397;-75
2022/08/18 02:15:32;;;;;;;23.65;19.95;;;17.60;99.90;;;;;;5095507;28;20024;-74
2022/08/18 02:17:58;;;;;;;22.23;19.70;;;17.60;99.90;;;;;;5095330;28;20535;-74
2022/08/18 02:20:24;;;;;;;22.73;18.50;;;17.70;99.90;;;;;;5095337;28;20107;-74
2022/08/18 02:22:50;;;;;;;29.45;19.13;;;17.60;99.90;;;;;;5093947;28;20062;-74
2022/08/18 02:25:17;;;;;;;22.90;18.38;;;17.60;99.90;;;;;;5095264;28;20024;-74
2022/08/18 02:27:43;;;;;;;24.55;18.80;;;17.60;99.90;;;;;;5095136;28;20020;-74
2022/08/18 02:30:12;;;;;;;20.33;17.08;;;17.60;99.90;;;;;;5095209;28;20103;-74
2022/08/18 02:32:38;;;;;;;22.35;17.80;;;17.60;99.90;;;;;;5095115;28;20478;-74
2022/08/18 02:35:06;;;;;;;20.13;16.52;;;17.50;99.90;;;;;;5095004;28;20031;-74
2022/08/18 02:37:31;;;;;;;24.25;18.50;;;17.50;99.90;;;;;;5094906;28;20463;-74
2022/08/18 02:39:57;;;;;;;26.30;21.75;;;17.50;99.90;;;;;;5093624;28;20030;-74
2022/08/18 02:42:23;;;;;;;24.30;21.70;;;17.50;99.90;;;;;;5094975;28;20115;-74
2022/08/18 02:44:49;;;;;;;30.65;24.17;;;17.50;99.90;;;;;;5094942;28;20020;-74
2022/08/18 02:47:19;;;;;;;31.75;25.05;;;17.50;99.90;;;;;;5094920;28;20027;-74
2022/08/18 02:49:44;;;;;;;27.13;23.38;;;17.50;99.90;;;;;;5094464;28;20443;-73
2022/08/18 02:52:10;;;;;;;31.65;25.35;;;17.50;99.90;;;;;;5094725;28;20138;-74
2022/08/18 02:54:36;;;;;;;24.98;21.95;;;17.50;99.90;;;;;;5093586;28;20031;-74
2022/08/18 02:57:09;;;;;;;22.33;19.48;;;17.50;99.90;;;;;;5094725;28;20111;-74
2022/08/18 02:59:37;;;;;;;19.48;17.08;;;17.40;99.90;;;;;;5094670;28;20024;-74
2022/08/18 03:02:04;;;;;;;18.05;13.77;;;17.40;99.90;;;;;;5093104;28;20090;-74
2022/08/18 03:04:30;;;;;;;15.90;14.23;;;17.20;99.90;;;;;;5094547;28;20020;-74
2022/08/18 03:07:00;;;;;;;18.95;15.23;;;17.20;99.90;;;;;;5093099;28;20537;-74
2022/08/18 03:09:30;;;;;;;16.42;14.52;;;17.10;99.90;;;;;;5094486;28;20024;-74
2022/08/18 03:11:57;;;;;;;20.85;15.25;;;17.10;99.90;;;;;;5094259;28;20024;-74
2022/08/18 03:14:24;;;;;;;26.88;17.73;;;17.20;99.90;;;;;;5094501;28;20421;-74
2022/08/18 03:16:49;;;;;;;25.10;18.35;;;17.20;99.90;;;;;;5094522;28;20044;-74
2022/08/18 03:19:16;;;;;;;22.83;17.42;;;17.20;99.90;;;;;;5094117;28;20048;-74
2022/08/18 03:21:43;;;;;;;20.92;18.27;;;17.20;99.90;;;;;;5092860;28;20032;-74
2022/08/18 03:24:09;;;;;;;25.83;20.63;;;17.20;99.90;;;;;;5094202;28;20107;-74
2022/08/18 03:26:40;;;;;;;24.13;20.20;;;17.20;99.90;;;;;;5092840;28;20052;-74
2022/08/18 03:29:08;;;;;;;29.50;20.65;;;17.30;99.90;;;;;;5093952;28;20069;-74
2022/08/18 03:31:37;;;;;;;22.67;19.20;;;17.30;99.90;;;;;;5092669;28;20071;-74
2022/08/18 03:34:04;;;;;;;25.45;21.42;;;17.30;99.90;;;;;;5093966;28;20016;-73
2022/08/18 03:36:32;;;;;;;27.55;22.67;;;17.20;99.90;;;;;;5092744;28;20069;-74
2022/08/18 03:39:01;;;;;;;25.15;21.67;;;17.30;99.90;;;;;;5092551;28;20111;-74
2022/08/18 03:41:27;;;;;;;23.02;19.55;;;17.30;99.90;;;;;;5092315;28;20481;-73
2022/08/18 03:43:53;;;;;;;23.70;21.00;;;17.30;99.90;;;;;;5093785;28;20124;-74
2022/08/18 03:46:20;;;;;;;24.02;19.98;;;17.40;99.90;;;;;;5092411;28;20118;-74
2022/08/18 03:48:48;;;;;;;21.85;19.42;;;17.30;99.90;;;;;;5093671;28;20062;-74
2022/08/18 03:51:18;;;;;;;21.27;18.00;;;17.30;99.90;;;;;;5093556;28;20438;-74
2022/08/18 03:53:47;;;;;;;21.85;18.13;;;17.30;99.90;;;;;;5092276;28;20031;-74
2022/08/18 03:56:16;;;;;;;26.20;20.25;;;17.30;99.90;;;;;;5093462;28;20023;-74
2022/08/18 03:58:44;;;;;;;24.92;21.77;;;17.30;99.90;;;;;;5093531;28;20020;-74
2022/08/18 04:01:12;;;;;;;23.35;20.85;;;17.40;99.90;;;;;;5093268;28;20020;-74
2022/08/18 04:03:38;;;;;;;27.95;20.67;;;17.40;99.90;;;;;;5093504;28;20028;-74
2022/08/18 04:06:04;;;;;;;28.23;21.83;;;17.40;99.90;;;;;;5093081;28;20442;-74
2022/08/18 04:08:29;;;;;;;27.85;23.00;;;17.50;99.90;;;;;;5092641;28;20420;-74
2022/08/18 04:10:55;;;;;;;31.65;24.52;;;17.50;99.90;;;;;;5093326;28;20031;-75
2022/08/18 04:13:21;;;;;;;31.33;23.90;;;17.50;99.90;;;;;;5091697;28;20032;-74
2022/08/18 04:15:46;;;;;;;32.08;25.35;;;17.60;99.90;;;;;;5092823;28;20484;-75
2022/08/18 04:18:12;;;;;;;28.58;23.63;;;17.70;99.90;;;;;;5093112;28;20028;-74
2022/08/18 04:20:39;;;;;;;28.20;22.88;;;17.80;99.90;;;;;;5092208;28;20016;-74
2022/08/18 04:23:04;;;;;;;28.30;23.55;;;17.80;99.90;;;;;;5093063;28;20447;-74
2022/08/18 04:25:31;;;;;;;25.60;22.27;;;17.90;99.90;;;;;;5091540;28;20029;-75
2022/08/18 04:28:00;;;;;;;28.45;23.63;;;18.00;99.90;;;;;;5091952;28;20073;-74
2022/08/18 04:30:27;;;;;;;27.00;23.08;;;18.10;99.90;;;;;;5092940;28;20043;-74
2022/08/18 04:32:53;;;;;;;33.95;24.63;;;18.30;99.90;;;;;;5092941;28;20535;-74
2022/08/18 04:35:21;;;;;;;25.13;22.00;;;18.40;99.90;;;;;;5092956;28;20091;-74
2022/08/18 04:37:46;;;;;;;42.08;31.00;;;18.50;99.90;;;;;;5091275;28;20535;-74
2022/08/18 04:40:13;;;;;;;39.47;30.60;;;18.70;99.90;;;;;;5093060;28;20016;-74
2022/08/18 04:42:38;;;;;;;35.05;27.15;;;18.80;99.90;;;;;;5091593;28;20068;-75
2022/08/18 04:45:06;;;;;;;34.58;27.52;;;19.00;99.90;;;;;;5091755;28;20051;-75
2022/08/18 04:47:31;;;;;;;39.25;31.23;;;19.10;99.90;;;;;;5091450;28;20622;-75
2022/08/18 04:49:57;;;;;;;38.65;30.13;;;19.30;99.90;;;;;;5091697;28;20152;-75
2022/08/18 04:55:07;;;;;;;34.83;27.63;;;19.60;99.90;;;;;;5092866;28;20039;-75
2022/08/18 04:57:34;;;;;;;34.55;27.73;;;19.70;99.90;;;;;;5092653;28;20012;-75
2022/08/18 04:59:59;;;;;;;34.40;26.58;;;19.90;99.90;;;;;;5092818;28;20020;-76
2022/08/18 05:02:25;;;;;;;34.10;28.33;;;20.00;99.90;;;;;;5092513;28;20039;-75
2022/08/18 05:04:51;;;;;;;34.00;26.42;;;20.10;99.90;;;;;;5091414;28;20032;-75
2022/08/18 05:07:21;;;;;;;29.23;24.77;;;20.20;99.90;;;;;;5091007;28;20012;-75
2022/08/18 05:09:47;;;;;;;27.65;23.38;;;20.30;99.90;;;;;;5092723;28;20649;-75
2022/08/18 05:12:14;;;;;;;36.17;27.40;;;20.40;99.90;;;;;;5092605;28;20024;-75
2022/08/18 05:14:43;;;;;;;36.28;29.05;;;20.60;99.90;;;;;;5092723;28;20056;-76
2022/08/18 05:17:09;;;;;;;34.05;28.63;;;20.70;99.90;;;;;;5092274;28;20066;-76
2022/08/18 05:19:35;;;;;;;30.95;26.05;;;20.80;99.90;;;;;;5095400;28;20020;-75
2022/08/18 05:22:02;;;;;;;33.60;27.13;;;20.80;99.90;;;;;;5094440;28;20428;-75
2022/08/18 05:24:31;;;;;;;30.02;25.83;;;20.90;99.90;;;;;;5095227;28;20012;-75
2022/08/18 05:26:57;;;;;;;30.17;26.92;;;21.00;99.90;;;;;;5096023;28;20086;-75
2022/08/18 05:29:23;;;;;;;32.65;25.00;;;21.10;99.90;;;;;;5096047;28;20466;-76
2022/08/18 05:31:50;;;;;;;29.15;26.05;;;21.20;99.90;;;;;;5095560;28;20027;-76
2022/08/18 05:34:19;;;;;;;28.92;25.15;;;21.30;99.90;;;;;;5086445;28;20055;-75
2022/08/18 05:36:49;;;;;;;29.48;25.35;;;21.40;99.90;;;;;;5094517;28;20029;-76
2022/08/18 05:39:20;;;;;;;33.45;27.52;;;21.50;99.90;;;;;;5095867;28;20055;-76
2022/08/18 05:42:10;;;;;;;31.77;27.38;;;21.60;99.90;;;;;;5095879;28;20119;-76
2022/08/18 05:44:44;;;;;;;36.70;29.30;;;21.70;99.90;;;;;;5095409;28;20024;-76
2022/08/18 05:47:21;;;;;;;34.88;29.80;;;21.80;99.90;;;;;;5094483;28;20024;-76
2022/08/18 05:49:48;;;;;;;36.10;29.58;;;21.80;99.90;;;;;;5094791;28;20120;-76
2022/08/18 05:52:28;;;;;;;32.22;27.48;;;21.90;99.90;;;;;;5094295;28;20545;-76
2022/08/18 05:58:04;;;;;;;36.00;27.73;;;22.00;99.90;;;;;;5093903;28;20027;-76
2022/08/18 06:00:31;;;;;;;32.83;27.85;;;22.10;99.90;;;;;;5094486;28;20048;-76
2022/08/18 06:03:04;;;;;;;35.28;26.80;;;22.30;99.90;;;;;;5093997;28;20039;-76
2022/08/18 06:05:56;;;;;;;28.08;24.58;;;22.40;99.90;;;;;;5093004;28;20034;-76
2022/08/18 06:08:27;;;;;;;26.73;23.90;;;22.70;99.90;;;;;;5093645;28;20444;-76
2022/08/18 06:10:53;;;;;;;25.00;22.40;;;22.80;99.90;;;;;;5093912;28;20107;-76
2022/08/18 06:13:19;;;;;;;30.13;25.02;;;22.80;99.90;;;;;;5092667;28;20107;-76
2022/08/18 06:15:53;;;;;;;29.33;25.58;;;23.00;99.90;;;;;;5086672;28;20064;-76
2022/08/18 06:18:54;;;;;;;27.60;23.90;;;22.90;99.90;;;;;;5090961;28;20016;-76
2022/08/18 06:21:50;;;;;;;24.70;22.05;;;23.00;99.90;;;;;;5090434;28;20117;-77
2022/08/18 06:24:19;;;;;;;24.23;20.52;;;23.10;99.90;;;;;;5093913;28;20032;-77
2022/08/18 06:27:05;;;;;;;24.23;20.23;;;23.30;99.90;;;;;;5082128;28;20024;-76
2022/08/18 06:30:03;;;;;;;26.20;22.75;;;23.50;99.90;;;;;;5092669;28;20033;-76
2022/08/18 06:32:40;;;;;;;25.30;21.50;;;23.60;99.90;;;;;;5092355;28;20024;-77
2022/08/18 06:35:32;;;;;;;24.55;20.52;;;23.80;99.90;;;;;;5092651;28;20028;-76
2022/08/18 06:38:37;;;;;;;22.63;18.88;;;24.00;99.90;;;;;;5093876;28;20049;-75
2022/08/18 06:41:20;;;;;;;22.08;18.80;;;24.10;99.90;;;;;;5092454;28;20478;-77
2022/08/18 06:44:04;;;;;;;21.85;16.98;;;24.30;99.90;;;;;;5081491;28;20592;-76
2022/08/18 06:46:52;;;;;;;22.80;17.83;;;24.40;99.90;;;;;;5093772;28;20024;-76
2022/08/18 06:50:52;;;;;;;18.92;16.25;;;24.50;99.90;;;;;;5144566;27;20381;-75
2022/08/18 06:53:18;;;;;;;20.95;16.40;;;24.60;99.90;;;;;;5146077;27;20023;-75
2022/08/18 06:55:47;;;;;;;18.05;15.10;;;24.80;99.90;;;;;;5151936;27;20054;-74
2022/08/18 06:58:19;;;;;;;19.42;13.70;;;24.90;99.90;;;;;;5136521;27;20499;-74
2022/08/18 07:00:50;;;;;;;18.90;14.03;;;25.00;99.90;;;;;;5135931;27;20027;-75
2022/08/18 07:03:20;;;;;;;15.85;13.63;;;25.10;99.90;;;;;;5148508;27;20359;-78
2022/08/18 07:06:22;;;;;;;14.98;13.10;;;25.30;99.90;;;;;;5122520;27;20025;-78
2022/08/18 07:08:50;;;;;;;15.18;12.80;;;25.30;99.90;;;;;;5139762;27;20027;-79
2022/08/18 07:11:28;;;;;;;15.95;13.02;;;25.40;99.90;;;;;;5148398;27;20054;-78
2022/08/18 07:14:16;;;;;;;12.48;11.15;;;25.50;99.90;;;;;;5149988;27;20098;-77
2022/08/18 07:16:41;;;;;;;13.27;12.00;;;25.60;99.90;;;;;;5138878;27;20035;-74
2022/08/18 07:19:08;;;;;;;14.73;13.00;;;25.80;99.90;;;;;;5149136;27;20022;-79
2022/08/18 07:21:36;;;;;;;16.30;13.75;;;25.80;99.90;;;;;;5150703;27;20052;-79
2022/08/18 07:24:29;;;;;;;17.45;12.85;;;25.90;99.90;;;;;;5149131;27;20422;-78
2022/08/18 07:27:06;;;;;;;13.13;11.25;;;26.00;99.90;;;;;;5133829;27;20038;-81
2022/08/18 07:29:36;;;;;;;14.05;12.65;;;26.00;99.90;;;;;;5124831;27;20506;-80
2022/08/18 07:32:16;;;;;;;12.93;11.60;;;26.10;99.90;;;;;;5147449;27;20087;-79
2022/08/18 07:34:47;;;;;;;15.23;12.88;;;26.30;99.20;;;;;;5149882;27;20023;-80
2022/08/18 07:37:28;;;;;;;13.65;11.98;;;26.30;94.40;;;;;;5134193;27;20064;-80
2022/08/18 07:40:01;;;;;;;14.48;12.48;;;26.30;95.40;;;;;;5143058;27;20042;-79
2022/08/18 07:42:34;;;;;;;16.75;12.18;;;26.30;96.90;;;;;;5145176;27;20042;-81
2022/08/18 07:45:18;;;;;;;15.60;12.23;;;26.30;94.30;;;;;;5149557;27;20015;-80
2022/08/18 07:48:02;;;;;;;12.93;11.73;;;26.50;95.70;;;;;;5150825;27;20032;-79
2022/08/18 07:50:34;;;;;;;15.82;12.93;;;26.50;91.20;;;;;;5150168;27;20053;-81
2022/08/18 07:53:26;;;;;;;14.90;11.68;;;26.40;90.10;;;;;;5144496;27;20041;-81
2022/08/18 07:55:59;;;;;;;14.15;12.15;;;26.50;90.20;;;;;;5139297;27;20019;-79
2022/08/18 07:58:28;;;;;;;17.92;12.70;;;26.40;90.90;;;;;;5138206;27;20476;-80
2022/08/18 08:01:01;;;;;;;14.07;11.50;;;26.50;90.20;;;;;;5141173;27;20051;-80
2022/08/18 08:03:34;;;;;;;14.40;12.48;;;26.60;91.90;;;;;;5133149;27;20018;-80
2022/08/18 08:06:17;;;;;;;12.02;10.80;;;26.50;88.70;;;;;;5131028;27;20024;-80
2022/08/18 08:08:57;;;;;;;14.20;11.55;;;26.60;89.10;;;;;;5136145;27;20023;-80
2022/08/18 08:11:30;;;;;;;15.07;11.95;;;26.70;85.40;;;;;;5134369;27;20023;-80
2022/08/18 08:14:16;;;;;;;14.02;12.40;;;26.70;86.20;;;;;;5136341;27;20035;-81
2022/08/18 08:16:55;;;;;;;13.10;11.75;;;26.80;88.40;;;;;;5129345;27;20115;-81
2022/08/18 08:19:35;;;;;;;16.17;12.60;;;26.80;86.20;;;;;;5129148;27;20074;-81
2022/08/18 08:22:12;;;;;;;16.92;12.43;;;26.70;87.70;;;;;;5107311;28;20023;-81
2022/08/18 08:24:55;;;;;;;19.20;12.07;;;26.80;89.90;;;;;;5109544;27;20050;-81
2022/08/18 08:27:48;;;;;;;14.73;11.60;;;26.80;84.90;;;;;;5120621;27;20110;-84
2022/08/18 08:30:18;;;;;;;15.02;11.90;;;26.90;84.80;;;;;;5111922;27;20032;-82
2022/08/18 08:32:49;;;;;;;15.27;12.30;;;26.90;83.10;;;;;;5134861;27;20046;-80
2022/08/18 08:35:22;;;;;;;13.05;11.55;;;26.80;86.50;;;;;;5135932;27;20051;-79
2022/08/18 08:37:59;;;;;;;13.98;11.98;;;27.00;86.00;;;;;;5132272;27;20051;-80
2022/08/18 08:40:32;;;;;;;15.57;11.93;;;27.20;84.70;;;;;;5132395;27;20098;-80
2022/08/18 08:43:10;;;;;;;13.43;12.02;;;27.20;82.40;;;;;;5129405;27;20442;-80
2022/08/18 08:45:43;;;;;;;16.60;12.02;;;27.20;82.20;;;;;;5108147;27;20495;-77
2022/08/18 08:48:16;;;;;;;16.67;12.32;;;27.40;82.30;;;;;;5133672;27;20465;-78
2022/08/18 08:51:22;;;;;;;15.07;12.00;;;27.50;79.80;;;;;;5108469;27;20481;-78
2022/08/18 08:54:07;;;;;;;13.10;11.68;;;27.70;80.20;;;;;;5106688;27;20027;-78
2022/08/18 08:56:46;;;;;;;15.40;11.80;;;27.80;79.60;;;;;;5117460;27;20012;-78
2022/08/18 08:59:14;;;;;;;15.45;11.60;;;28.00;76.90;;;;;;5134683;27;20487;-78
2022/08/18 09:01:58;;;;;;;15.30;12.48;;;28.00;74.90;;;;;;5132139;27;20365;-78
2022/08/18 09:04:36;;;;;;;13.98;12.50;;;27.90;76.50;;;;;;5133535;27;20369;-79
2022/08/18 09:07:19;;;;;;;13.15;11.30;;;27.80;77.60;;;;;;5134348;27;20031;-78
2022/08/18 09:10:27;;;;;;;14.80;12.02;;;27.70;77.30;;;;;;5120548;27;20035;-78
2022/08/18 09:13:26;;;;;;;14.57;13.02;;;27.60;78.00;;;;;;5058021;28;21257;-78
2022/08/18 09:16:20;;;;;;;15.40;12.10;;;27.70;79.50;;;;;;5135070;27;20019;-79
2022/08/18 09:19:40;;;;;;;15.00;13.25;;;27.60;80.00;;;;;;5131844;27;20030;-78
2022/08/18 09:22:11;;;;;;;15.05;11.70;;;27.70;79.30;;;;;;5077272;27;20035;-78
2022/08/18 09:24:57;;;;;;;13.40;11.93;;;28.00;80.40;;;;;;5108106;27;20053;-78
2022/08/18 09:27:44;;;;;;;13.15;11.20;;;28.20;74.40;;;;;;5120764;27;20019;-78
2022/08/18 09:30:42;;;;;;;14.10;11.68;;;28.20;73.50;;;;;;5133651;27;20031;-78
2022/08/18 09:33:18;;;;;;;15.55;12.57;;;28.40;72.40;;;;;;5133458;27;20050;-78
2022/08/18 09:36:12;;;;;;;14.32;11.23;;;28.30;71.10;;;;;;5134701;27;20068;-78
2022/08/18 09:41:58;;;;;;;15.30;11.45;;;28.30;73.10;;;;;;5130298;27;20038;-78
2022/08/18 09:44:46;;;;;;;12.73;11.43;;;28.10;74.40;;;;;;5133212;27;20763;-78
2022/08/18 09:47:32;;;;;;;13.90;11.18;;;28.20;72.90;;;;;;5100270;27;20050;-78
2022/08/18 09:50:04;;;;;;;15.85;11.98;;;28.40;71.20;;;;;;5106869;27;20146;-78
2022/08/18 09:52:32;;;;;;;16.63;10.88;;;28.60;70.20;;;;;;5104965;27;20031;-78
2022/08/18 09:55:04;;;;;;;12.93;10.80;;;28.80;71.30;;;;;;5105917;27;20028;-78
2022/08/18 09:57:32;;;;;;;11.77;10.27;;;29.00;67.70;;;;;;5109771;27;20023;-78
2022/08/18 10:00:12;;;;;;;13.60;11.18;;;28.90;65.70;;;;;;5105482;27;20139;-78
2022/08/18 10:02:38;;;;;;;14.10;11.82;;;28.80;68.40;;;;;;5109075;27;20026;-78
2022/08/18 10:05:17;;;;;;;18.75;11.77;;;28.80;69.20;;;;;;5106587;27;20016;-78
2022/08/18 10:07:52;;;;;;;13.50;11.40;;;28.80;69.30;;;;;;5111664;27;20038;-78
2022/08/18 10:10:23;;;;;;;16.02;11.30;;;29.00;68.60;;;;;;5104049;27;20096;-78
2022/08/18 10:13:04;;;;;;;13.32;12.07;;;29.20;67.70;;;;;;5103289;28;20080;-78
2022/08/18 10:15:58;;;;;;;15.48;11.48;;;29.10;68.00;;;;;;5103884;27;20032;-78
2022/08/18 10:18:26;;;;;;;13.23;9.90;;;29.10;67.40;;;;;;5104101;28;20035;-77
2022/08/18 10:21:02;;;;;;;12.70;10.20;;;29.20;65.80;;;;;;5102291;27;20473;-78
2022/08/18 10:23:46;;;;;;;12.35;9.60;;;29.30;67.50;;;;;;5103969;27;20024;-78
2022/08/18 10:26:30;;;;;;;11.60;10.23;;;29.20;65.10;;;;;;5102256;28;20081;-78
2022/08/18 10:29:23;;;;;;;11.52;10.25;;;29.30;64.20;;;;;;5109615;27;20135;-78
2022/08/18 10:31:55;;;;;;;11.43;9.90;;;29.30;65.80;;;;;;5105682;27;20488;-78
2022/08/18 10:34:41;;;;;;;12.20;9.65;;;29.30;63.90;;;;;;5105605;28;20051;-78
2022/08/18 10:37:22;;;;;;;14.45;9.55;;;29.30;61.70;;;;;;5108866;27;20110;-78
2022/08/18 10:40:02;;;;;;;12.15;9.48;;;29.30;63.60;;;;;;5105507;28;20088;-78
2022/08/18 10:42:36;;;;;;;11.30;9.90;;;29.50;62.50;;;;;;5107347;27;20036;-78
2022/08/18 10:45:20;;;;;;;10.63;9.57;;;29.60;61.40;;;;;;5106891;27;20384;-78
2022/08/18 10:48:03;;;;;;;10.85;9.30;;;29.60;61.80;;;;;;5101170;28;20380;-78
2022/08/18 10:50:37;;;;;;;14.57;10.63;;;29.40;62.10;;;;;;5102722;28;20497;-78
2022/08/18 10:53:14;;;;;;;10.60;9.50;;;29.50;62.30;;;;;;5111138;28;20107;-78
2022/08/18 10:55:52;;;;;;;11.57;10.32;;;29.40;60.80;;;;;;5113111;28;20049;-78
2022/08/18 10:58:21;;;;;;;11.90;9.13;;;29.30;60.80;;;;;;5133620;27;20098;-78
2022/08/18 11:00:54;;;;;;;15.27;9.75;;;29.20;59.50;;;;;;5133732;27;20019;-78
2022/08/18 11:03:39;;;;;;;10.30;8.77;;;29.20;59.50;;;;;;5133713;27;20026;-78
2022/08/18 11:06:08;;;;;;;10.57;8.27;;;29.20;61.50;;;;;;5106800;27;20039;-78
2022/08/18 11:08:43;;;;;;;10.70;9.18;;;29.30;60.80;;;;;;5125860;28;20468;-78
2022/08/18 11:11:11;;;;;;;10.00;9.05;;;29.40;60.50;;;;;;5126540;27;20081;-78
2022/08/18 11:13:42;;;;;;;9.90;8.93;;;29.50;61.90;;;;;;5107663;28;20028;-78
2022/08/18 11:16:34;;;;;;;12.20;9.90;;;29.50;61.60;;;;;;5113713;27;20068;-78
2022/08/18 11:19:09;;;;;;;10.30;9.30;;;29.70;59.80;;;;;;5132449;27;20253;-78
2022/08/18 11:21:42;;;;;;;10.57;8.48;;;29.60;58.40;;;;;;5132531;27;20374;-78
2022/08/18 11:24:15;;;;;;;12.10;9.25;;;29.50;58.20;;;;;;5126824;28;20023;-78
2022/08/18 11:26:47;;;;;;;10.50;9.20;;;29.30;57.10;;;;;;5109525;27;20487;-78
2022/08/18 11:29:25;;;;;;;11.60;8.50;;;29.30;57.90;;;;;;5130667;28;20106;-78
2022/08/18 11:32:14;;;;;;;13.02;8.88;;;29.20;58.70;;;;;;5128181;27;20122;-78
2022/08/18 11:34:52;;;;;;;13.18;9.02;;;29.10;59.40;;;;;;5121980;28;20040;-78
2022/08/18 11:37:28;;;;;;;9.88;8.05;;;29.10;58.50;;;;;;5127987;27;20047;-78
2022/08/18 11:39:57;;;;;;;10.27;9.27;;;29.20;58.50;;;;;;5111567;27;20082;-78
2022/08/18 11:42:29;;;;;;;11.05;8.27;;;29.40;58.60;;;;;;5123933;27;20391;-78
2022/08/18 11:45:19;;;;;;;14.32;9.00;;;29.70;59.70;;;;;;5130001;27;20019;-78
2022/08/18 11:48:13;;;;;;;10.32;8.63;;;29.60;57.00;;;;;;5134799;27;20476;-78
2022/08/18 11:51:02;;;;;;;12.90;8.80;;;29.40;56.60;;;;;;5112992;27;20041;-78
2022/08/18 11:53:31;;;;;;;9.15;8.05;;;29.50;58.60;;;;;;5134351;27;20468;-78
2022/08/18 11:56:04;;;;;;;9.73;8.27;;;29.50;58.30;;;;;;5135412;27;20065;-78
2022/08/18 11:58:44;;;;;;;9.57;7.95;;;29.40;57.60;;;;;;5134149;27;20100;-78
2022/08/18 12:01:29;;;;;;;10.73;7.78;;;29.50;57.30;;;;;;5122931;27;20072;-78
2022/08/18 12:03:56;;;;;;;12.38;8.57;;;29.50;56.40;;;;;;5134501;27;20414;-78
2022/08/18 12:06:27;;;;;;;11.43;8.93;;;29.60;57.40;;;;;;5116962;27;20493;-78
2022/08/18 12:09:13;;;;;;;9.63;8.57;;;29.70;57.80;;;;;;5119116;27;20035;-78
2022/08/18 12:11:57;;;;;;;10.85;8.38;;;29.70;57.40;;;;;;5126638;27;20088;-78
2022/08/18 12:14:25;;;;;;;9.52;8.52;;;29.70;56.30;;;;;;5134869;27;20023;-78
2022/08/18 12:16:52;;;;;;;10.85;8.55;;;29.80;56.80;;;;;;5135124;27;20395;-78
2022/08/18 12:19:19;;;;;;;13.68;8.93;;;29.70;55.90;;;;;;5134318;27;20015;-78
2022/08/18 12:21:57;;;;;;;10.88;9.00;;;29.70;56.50;;;;;;5133656;27;20039;-78
2022/08/18 12:24:25;;;;;;;9.55;7.85;;;29.80;56.20;;;;;;5133716;27;20491;-79
2022/08/18 12:26:52;;;;;;;9.38;8.45;;;29.90;57.60;;;;;;5127692;27;20537;-78
2022/08/18 12:29:18;;;;;;;8.88;7.97;;;29.80;56.60;;;;;;5131871;27;20382;-78
2022/08/18 12:31:45;;;;;;;12.32;9.23;;;29.80;57.70;;;;;;5130348;27;20042;-78
2022/08/18 12:34:11;;;;;;;9.85;8.70;;;29.80;57.90;;;;;;5129396;27;20051;-78
2022/08/18 12:36:37;;;;;;;9.45;8.50;;;30.00;59.10;;;;;;5129506;27;20070;-78
2022/08/18 12:39:04;;;;;;;9.25;8.18;;;30.10;57.60;;;;;;5133361;27;20450;-78
2022/08/18 12:41:30;;;;;;;11.73;8.68;;;30.00;56.10;;;;;;5133701;27;20035;-78
2022/08/18 12:43:56;;;;;;;11.55;9.57;;;30.20;56.70;;;;;;5134168;27;20110;-78
2022/08/18 12:46:22;;;;;;;9.68;8.32;;;30.20;56.40;;;;;;5127206;27;20475;-79
2022/08/18 12:48:48;;;;;;;9.18;7.97;;;30.20;57.70;;;;;;5134246;27;20547;-78
2022/08/18 12:51:14;;;;;;;10.55;8.77;;;30.20;56.70;;;;;;5134778;27;20127;-78
2022/08/18 12:53:40;;;;;;;10.35;8.15;;;30.30;57.10;;;;;;5134086;27;20019;-79
2022/08/18 12:56:29;;;;;;;10.55;8.70;;;30.30;56.20;;;;;;5133385;27;20026;-79
2022/08/18 12:58:55;;;;;;;11.35;8.80;;;30.20;57.30;;;;;;5120969;27;20067;-78
2022/08/18 13:01:23;;;;;;;13.18;9.27;;;30.20;58.00;;;;;;5134711;27;20035;-78
2022/08/18 13:03:50;;;;;;;11.98;9.00;;;30.20;56.80;;;;;;5133067;27;20079;-78
2022/08/18 13:06:15;;;;;;;9.40;8.50;;;30.20;56.80;;;;;;5116777;27;20034;-78
2022/08/18 13:08:42;;;;;;;9.90;8.90;;;30.00;57.20;;;;;;5131959;27;20027;-78
2022/08/18 13:11:09;;;;;;;12.60;8.63;;;30.10;56.90;;;;;;5134820;27;20038;-78
2022/08/18 13:13:37;;;;;;;8.98;7.75;;;30.10;56.90;;;;;;5126434;27;20016;-79
2022/08/18 13:16:05;;;;;;;11.52;9.73;;;30.20;56.90;;;;;;5133589;27;20027;-79
2022/08/18 13:18:30;;;;;;;10.48;8.75;;;30.10;56.60;;;;;;5118963;27;20048;-78